^^
Station Historical Data
Daily Summary for November 25, 2017 Units:  Metric    English   Both
« Previous Day
Next Day »
Daily Weekly Monthly Yearly Custom
  High: Low: Average:
Temperature: 32.3 °C 13.8 °C 23.3 °C
Dew Point: 4.2 °C -6.8 °C -0.2 °C
Humidity: 51% 8% 26%
Wind Speed: 24.1km/h 0km/h 9.5km/h
Wind Gust: 33.8km/h - -
Wind- - South
Pressure: 1012.8 hPa 1007.7 hPa -
Precipitation: 0 mm    
Historical Graphs
 
 
Tabular Data for November 25, 2017
Time Temperature Dew Point Pressure Wind Wind Speed Wind Gust Humidity Rainfall Rate (Hourly) solar Conditions
00:07 19.6 °C 2 °C 1012.1 hPa SSW 13 km/h 17.7 km/h 31% 0 mm 0.0 W/m2
00:12 19.6 °C 2 °C 1012.1 hPa SSW 13 km/h 16.1 km/h 31% 0 mm 0.0 W/m2
00:18 19.4 °C 1.8 °C 1012.1 hPa SSW 9.7 km/h 11.3 km/h 31% 0 mm 0.0 W/m2
00:23 19.3 °C 2.2 °C 1012.1 hPa SSW 7.9 km/h 12.9 km/h 32% 0 mm 0.0 W/m2
00:28 19.2 °C 2.1 °C 1011.7 hPa SSW 11.1 km/h 12.9 km/h 32% 0 mm 0.0 W/m2
00:33 19.2 °C 2.5 °C 1011.7 hPa SSW 11.1 km/h 16.1 km/h 33% 0 mm 0.0 W/m2
00:43 19.3 °C 2.6 °C 1011.7 hPa SSW 13 km/h 13 km/h 33% 0 mm 0.0 W/m2
00:52 19 °C 2.4 °C 1011.7 hPa SSW 7.9 km/h 9.7 km/h 33% 0 mm 0.0 W/m2
01:03 18.9 °C 2.3 °C 1011.7 hPa SSW 9.7 km/h 14.5 km/h 33% 0 mm 0.0 W/m2
01:08 18.9 °C 2.3 °C 1011.7 hPa SSW 7.9 km/h 12.9 km/h 33% 0 mm 0.0 W/m2
01:13 18.8 °C 2.2 °C 1011.7 hPa SSW 9.7 km/h 12.9 km/h 33% 0 mm 0.0 W/m2
01:23 18.6 °C 2 °C 1011.7 hPa SSW 6.4 km/h 9.7 km/h 33% 0 mm 0.0 W/m2
01:28 18.4 °C 1.8 °C 1011.7 hPa SSW 7.9 km/h 9.7 km/h 33% 0 mm 0.0 W/m2
01:38 18 °C 2.3 °C 1011.7 hPa SSW 9.7 km/h 12.9 km/h 35% 0 mm 0.0 W/m2
01:43 18.1 °C 2.4 °C 1011.7 hPa SSW 9.7 km/h 14.5 km/h 35% 0 mm 0.0 W/m2
01:53 18.3 °C 3 °C 1011.7 hPa SSW 13 km/h 17.7 km/h 36% 0 mm 0.0 W/m2
01:58 18.2 °C 2.9 °C 1011.7 hPa SSW 11.1 km/h 12.9 km/h 36% 0 mm 0.0 W/m2
02:03 18.1 °C 3.2 °C 1011.7 hPa SSW 9.7 km/h 11.3 km/h 37% 0 mm 0.0 W/m2
02:08 17.9 °C 3 °C 1012.1 hPa SSW 9.7 km/h 11.3 km/h 37% 0 mm 0.0 W/m2
02:13 17.8 °C 2.9 °C 1012.1 hPa SSW 9.7 km/h 12.9 km/h 37% 0 mm 0.0 W/m2
02:18 17.8 °C 3.3 °C 1012.1 hPa SSW 13 km/h 14.5 km/h 38% 0 mm 0.0 W/m2
02:23 17.7 °C 3.2 °C 1012.1 hPa SSW 13 km/h 16.1 km/h 38% 0 mm 0.0 W/m2
02:28 17.7 °C 3.6 °C 1012.1 hPa SSW 13 km/h 16.1 km/h 39% 0 mm 0.0 W/m2
02:33 17.6 °C 3.5 °C 1011.7 hPa SSW 14.3 km/h 16.1 km/h 39% 0 mm 0.0 W/m2
02:38 17.5 °C 3.4 °C 1012.1 hPa SSW 9.7 km/h 14.5 km/h 39% 0 mm 0.0 W/m2
02:43 17.3 °C 3.6 °C 1011.7 hPa SSW 11.1 km/h 12.9 km/h 40% 0 mm 0.0 W/m2
02:48 17.2 °C 3.5 °C 1011.7 hPa SSW 6.4 km/h 6.4 km/h 40% 0 mm 0.0 W/m2
02:53 16.9 °C 3.2 °C 1011.7 hPa SSW 6.4 km/h 8 km/h 40% 0 mm 0.0 W/m2
02:58 16.7 °C 3.4 °C 1011.7 hPa SSW 9.7 km/h 11.3 km/h 41% 0 mm 0.0 W/m2
03:03 16.7 °C 3.7 °C 1011.7 hPa SSW 7.9 km/h 11.3 km/h 42% 0 mm 0.0 W/m2
03:14 16.3 °C 3.4 °C 1011.7 hPa SSW 7.9 km/h 8 km/h 42% 0 mm 0.0 W/m2
03:19 16.2 °C 3.3 °C 1011.4 hPa SSW 7.9 km/h 8 km/h 42% 0 mm 0.0 W/m2
03:24 16.1 °C 3.5 °C 1011.7 hPa SSW 7.9 km/h 9.7 km/h 43% 0 mm 0.0 W/m2
03:29 16 °C 3.4 °C 1011.7 hPa SSW 6.4 km/h 9.7 km/h 43% 0 mm 0.0 W/m2
03:34 15.9 °C 3.3 °C 1011.7 hPa SSW 7.9 km/h 11.3 km/h 43% 0 mm 0.0 W/m2
03:39 16.1 °C 3.8 °C 1011.7 hPa SSW 7.9 km/h 12.9 km/h 44% 0 mm 0.0 W/m2
03:44 16.3 °C 3.7 °C 1011.7 hPa SSW 9.7 km/h 12.9 km/h 43% 0 mm 0.0 W/m2
03:49 16.5 °C 4.2 °C 1011.7 hPa SSW 9.7 km/h 14.5 km/h 44% 0 mm 0.0 W/m2
03:54 16.6 °C 4 °C 1011.4 hPa SSW 9.7 km/h 12.9 km/h 43% 0 mm 0.0 W/m2
03:59 16.6 °C 4 °C 1011.4 hPa SSW 13 km/h 14.5 km/h 43% 0 mm 0.0 W/m2
04:05 16.6 °C 4 °C 1011.4 hPa SSW 11.1 km/h 14.5 km/h 43% 0 mm 0.0 W/m2
04:10 16.5 °C 3.9 °C 1011.4 hPa SSW 11.1 km/h 14.5 km/h 43% 0 mm 0.0 W/m2
04:15 16.4 °C 4.1 °C 1011.4 hPa SSW 11.1 km/h 14.5 km/h 44% 0 mm 0.0 W/m2
04:20 16.4 °C 4.1 °C 1011.4 hPa SSW 14.3 km/h 14.5 km/h 44% 0 mm 0.0 W/m2
04:25 16.3 °C 4 °C 1011.4 hPa SSW 7.9 km/h 11.3 km/h 44% 0 mm 0.0 W/m2
04:30 16.2 °C 3.9 °C 1011.4 hPa SSW 7.9 km/h 9.7 km/h 44% 0 mm 0.0 W/m2
04:35 16 °C 4.1 °C 1011.4 hPa SSW 7.9 km/h 9.7 km/h 45% 0 mm 0.0 W/m2
04:45 15.7 °C 3.8 °C 1011.7 hPa SSW 6.4 km/h 8 km/h 45% 0 mm 0.0 W/m2
04:50 15.4 °C 3.8 °C 1011.7 hPa SSW 6.4 km/h 8 km/h 46% 0 mm 0.0 W/m2
04:55 15.1 °C 3.9 °C 1011.7 hPa SSW 6.4 km/h 8 km/h 47% 0 mm 0.0 W/m2
05:00 14.9 °C 3.7 °C 1011.7 hPa SSW 9.7 km/h 9.7 km/h 47% 0 mm 0.0 W/m2
05:06 14.8 °C 3.9 °C 1012.1 hPa SSW 7.9 km/h 9.7 km/h 48% 0 mm 0.0 W/m2
05:21 14.6 °C 3.7 °C 1011.7 hPa SSW 4.7 km/h 6.4 km/h 48% 0 mm 0.0 W/m2
05:31 14.1 °C 3.3 °C 1012.1 hPa SSW 3.2 km/h 4.8 km/h 48% 0 mm 0.0 W/m2
05:36 13.9 °C 3.6 °C 1012.1 hPa Calm     50% 0 mm 0.0 W/m2
05:41 13.8 °C 3.8 °C 1012.1 hPa Calm     51% 0 mm 0.0 W/m2
05:47 13.9 °C 3.9 °C 1012.1 hPa Calm     51% 0 mm 0.0 W/m2
05:52 13.9 °C 3.6 °C 1012.1 hPa Calm     50% 0 mm 7.0 W/m2
05:57 14.1 °C 3.8 °C 1012.1 hPa Calm     50% 0 mm 11.0 W/m2
06:03 14.3 °C 3.7 °C 1012.4 hPa Calm     49% 0 mm 12.0 W/m2
06:18 14.7 °C 3.8 °C 1012.4 hPa Calm     48% 0 mm 39.0 W/m2
06:23 14.8 °C 3.9 °C 1012.4 hPa Calm     48% 0 mm 54.0 W/m2
06:34 15.4 °C 3.8 °C 1012.4 hPa Calm     46% 0 mm 88.0 W/m2
06:39 15.6 °C 4 °C 1012.4 hPa Calm     46% 0 mm 105.0 W/m2
06:44 16.1 °C 4.2 °C 1012.8 hPa Calm     45% 0 mm 127.0 W/m2
06:54 17.2 °C 3.5 °C 1012.8 hPa SSW 6.4 km/h 14.5 km/h 40% 0 mm 172.0 W/m2
07:02 17.6 °C 2 °C 1012.8 hPa Calm     35% 0 mm 193.0 W/m2
07:13 19.4 °C 1.4 °C 1012.8 hPa Calm     30% 0 mm 237.0 W/m2
07:23 20.2 °C 1.1 °C 1012.8 hPa Calm     28% 0 mm 274.0 W/m2
07:33 20.3 °C 1.2 °C 1012.8 hPa Calm     28% 0 mm 309.0 W/m2
07:45 20.6 °C 1.4 °C 1012.8 hPa Calm     28% 0 mm 345.0 W/m2
08:01 21.7 °C 2.4 °C 1012.8 hPa SSE 7.9 km/h 17.7 km/h 28% 0 mm 394.0 W/m2
08:25 23.3 °C 2.2 °C 1012.8 hPa SE 14.3 km/h 14.5 km/h 25% 0 mm 480.0 W/m2
08:36 23.6 °C 1.8 °C 1012.8 hPa East 1.4 km/h 17.7 km/h 24% 0 mm 515.0 W/m2
09:20 24.9 °C 1.7 °C 1012.4 hPa East 6.4 km/h 12.9 km/h 22% 0 mm 657.0 W/m2
09:30 25.4 °C 1.5 °C 1012.4 hPa East 13 km/h 19.3 km/h 21% 0 mm 689.0 W/m2
09:41 25.8 °C 1.1 °C 1012.1 hPa East 9.7 km/h 11.3 km/h 20% 0 mm 717.0 W/m2
10:11 26.2 °C 0.8 °C 1012.1 hPa East 1.4 km/h 11.3 km/h 19% 0 mm 791.0 W/m2
10:46 27.4 °C 0.2 °C 1011.7 hPa East 7.9 km/h 8 km/h 17% 0 mm 872.0 W/m2
10:56 27.5 °C -0.6 °C 1011.7 hPa East 3.2 km/h 8 km/h 16% 0 mm 891.0 W/m2
11:04 27.6 °C -0.5 °C 1011.7 hPa Calm   9.7 km/h 16% 0 mm 907.0 W/m2
11:12 27.9 °C -0.2 °C 1011.7 hPa East 1.4 km/h 11.3 km/h 16% 0 mm 925.0 W/m2
11:22 27.9 °C -1.1 °C 1011.4 hPa Calm   1.6 km/h 15% 0 mm 939.0 W/m2
11:39 28 °C -1 °C 1011.1 hPa Calm     15% 0 mm 954.0 W/m2
11:46 28.3 °C -0.8 °C 1011.1 hPa Calm   1.6 km/h 15% 0 mm 962.0 W/m2
11:56 29.1 °C -1.1 °C 1011.1 hPa Calm   1.6 km/h 14% 0 mm 967.0 W/m2
12:02 29.6 °C -0.7 °C 1010.7 hPa ENE 3.2 km/h 12.9 km/h 14% 0 mm 974.0 W/m2
12:18 29.7 °C -1.7 °C 1010.7 hPa Calm     13% 0 mm 977.0 W/m2
12:28 30 °C -2.5 °C 1010.7 hPa Calm     12% 0 mm 981.0 W/m2
12:35 30.2 °C -3.5 °C 1010.4 hPa East 11.1 km/h 17.7 km/h 11% 0 mm 984.0 W/m2
12:45 30.1 °C -3.6 °C 1010.4 hPa ESE 6.4 km/h 19.3 km/h 11% 0 mm 986.0 W/m2
12:48 30.1 °C -2.4 °C 1010.4 hPa Calm     12% 0 mm 986.0 W/m2
12:56 30.2 °C -2.4 °C 1010 hPa ESE 1.4 km/h 1.6 km/h 12% 0 mm 981.0 W/m2
13:04 30.4 °C -3.4 °C 1010 hPa ESE 13 km/h 14.5 km/h 11% 0 mm 977.0 W/m2
13:14 30.4 °C -3.4 °C 1010 hPa Calm   16.1 km/h 11% 0 mm 976.0 W/m2
13:24 30.9 °C -3 °C 1010 hPa Calm   9.7 km/h 11% 0 mm 969.0 W/m2
13:45 30.8 °C -3.1 °C 1009.7 hPa SE 6.4 km/h 19.3 km/h 11% 0 mm 951.0 W/m2
14:00 31.7 °C -3.7 °C 1009.4 hPa SE 9.7 km/h 17.7 km/h 10% 0 mm 930.0 W/m2
14:05 31.2 °C -4 °C 1009.4 hPa SE 3.2 km/h 14.5 km/h 10% 0 mm 918.0 W/m2
14:20 31.5 °C -3.8 °C 1009 hPa SE 9.7 km/h 14.5 km/h 10% 0 mm 895.0 W/m2
14:30 31.6 °C -3.7 °C 1009 hPa SE 16.3 km/h 16.3 km/h 10% 0 mm 868.0 W/m2
14:46 31.6 °C -5.1 °C 1009 hPa SSE 17.7 km/h 20.9 km/h 9% 0 mm 842.0 W/m2
15:01 31.7 °C -6.6 °C 1008.7 hPa SSE 4.7 km/h 14.5 km/h 8% 0 mm 810.0 W/m2
15:21 32.2 °C -6.2 °C 1008.7 hPa SE 3.2 km/h 20.9 km/h 8% 0 mm 772.0 W/m2
15:31 32.3 °C -6.2 °C 1008.4 hPa SE 13 km/h 24.1 km/h 8% 0 mm 733.0 W/m2
15:50 31.9 °C -6.5 °C 1008.4 hPa South 19.5 km/h 20.9 km/h 8% 0 mm 691.0 W/m2
16:00 31.9 °C -4.9 °C 1008.4 hPa South 9.7 km/h 17.7 km/h 9% 0 mm 654.0 W/m2
16:11 32 °C -6.4 °C 1008 hPa SSE 7.9 km/h 11.3 km/h 8% 0 mm 622.0 W/m2
16:20 32.3 °C -4.6 °C 1008 hPa SSE 19.5 km/h 20.9 km/h 9% 0 mm 594.0 W/m2
16:28 32.2 °C -4.7 °C 1007.7 hPa SSW 24.1 km/h 24.1 km/h 9% 0 mm 563.0 W/m2
16:34 32.1 °C -4.8 °C 1007.7 hPa South 16.3 km/h 19.3 km/h 9% 0 mm 545.0 W/m2
16:41 32.1 °C -6.3 °C 1007.7 hPa South 14.3 km/h 32.2 km/h 8% 0 mm 512.0 W/m2
17:00 31.9 °C -6.5 °C 1007.7 hPa South 14.3 km/h 20.9 km/h 8% 0 mm 462.0 W/m2
17:06 31.8 °C -6.5 °C 1008 hPa South 19.5 km/h 25.7 km/h 8% 0 mm 429.0 W/m2
17:11 31.6 °C -6.7 °C 1007.7 hPa South 13 km/h 24.1 km/h 8% 0 mm 411.0 W/m2
17:16 31.6 °C -6.7 °C 1007.7 hPa South 13 km/h 14.5 km/h 8% 0 mm 394.0 W/m2
17:22 31.5 °C -6.7 °C 1007.7 hPa SSE 22.7 km/h 22.7 km/h 8% 0 mm 378.0 W/m2
17:48 31.6 °C -5.1 °C 1007.7 hPa SSE 19.5 km/h 24.1 km/h 9% 0 mm 290.0 W/m2
17:53 31.4 °C -6.8 °C 1008 hPa SSE 19.5 km/h 22.5 km/h 8% 0 mm 272.0 W/m2
17:58 31.3 °C -5.4 °C 1008 hPa SSE 17.7 km/h 20.9 km/h 9% 0 mm 255.0 W/m2
18:04 31.3 °C -5.4 °C 1008 hPa SSE 14.3 km/h 20.9 km/h 9% 0 mm 239.0 W/m2
18:09 31.2 °C -5.4 °C 1008 hPa SSE 13 km/h 24.1 km/h 9% 0 mm 214.0 W/m2
18:18 31.2 °C -5.4 °C 1008 hPa South 16.3 km/h 24.1 km/h 9% 0 mm 176.0 W/m2
18:24 31.1 °C -5.5 °C 1008 hPa South 22.7 km/h 27.4 km/h 9% 0 mm 149.0 W/m2
18:36 30.9 °C -5.7 °C 1008 hPa South 20.9 km/h 20.9 km/h 9% 0 mm 113.0 W/m2
18:44 30.6 °C -5.9 °C 1008 hPa SSE 17.7 km/h 22.5 km/h 9% 0 mm 77.0 W/m2
18:52 30.3 °C -6.1 °C 1008.4 hPa South 24.1 km/h 30.6 km/h 9% 0 mm 35.0 W/m2
18:57 30.1 °C -4.9 °C 1008.4 hPa South 17.7 km/h 24.1 km/h 10% 0 mm 19.0 W/m2
19:02 29.9 °C -6.4 °C 1008.4 hPa South 17.7 km/h 25.7 km/h 9% 0 mm 14.0 W/m2
19:07 29.8 °C -6.5 °C 1008.7 hPa SSE 19.5 km/h 30.6 km/h 9% 0 mm 12.0 W/m2
19:32 29 °C -5.7 °C 1009 hPa SSE 17.7 km/h 27.4 km/h 10% 0 mm 0.0 W/m2
19:38 28.8 °C -5.9 °C 1009 hPa SSE 13 km/h 24.1 km/h 10% 0 mm 0.0 W/m2
19:48 28.6 °C -6 °C 1009 hPa SSE 17.7 km/h 24.1 km/h 10% 0 mm 0.0 W/m2
19:54 28.5 °C -6.1 °C 1009 hPa SSE 14.3 km/h 22.5 km/h 10% 0 mm 0.0 W/m2
20:03 28.3 °C -6.2 °C 1009 hPa SSE 13 km/h 22.5 km/h 10% 0 mm 0.0 W/m2
20:08 28.2 °C -6.3 °C 1009.4 hPa SSE 16.3 km/h 24.1 km/h 10% 0 mm 0.0 W/m2
20:15 28.1 °C -6.4 °C 1009.4 hPa SSE 19.5 km/h 22.5 km/h 10% 0 mm 0.0 W/m2
20:26 27.9 °C -6.5 °C 1009.7 hPa SSE 14.3 km/h 19.3 km/h 10% 0 mm 0.0 W/m2
20:33 27.7 °C -6.7 °C 1009.7 hPa SSE 11.1 km/h 17.7 km/h 10% 0 mm 0.0 W/m2
20:39 27.7 °C -6.7 °C 1009.7 hPa SSE 11.1 km/h 17.7 km/h 10% 0 mm 0.0 W/m2
21:08 26 °C 2 °C 1010 hPa South 17.7 km/h 24.1 km/h 21% 0 mm 0.0 W/m2
21:24 25.4 °C 2.8 °C 1010.4 hPa South 19.5 km/h 33.8 km/h 23% 0 mm 0.0 W/m2
21:52 24.4 °C 3.1 °C 1010.7 hPa South 20.9 km/h 29 km/h 25% 0 mm 0.0 W/m2
22:03 24.1 °C 3.4 °C 1010.7 hPa South 19.5 km/h 25.7 km/h 26% 0 mm 0.0 W/m2
22:14 23.8 °C 3.1 °C 1010.7 hPa South 19.5 km/h 25.7 km/h 26% 0 mm 0.0 W/m2
22:25 23.5 °C 3.4 °C 1010.7 hPa South 13 km/h 22.5 km/h 27% 0 mm 0.0 W/m2
Canyon Roadhouse, Fishriver Canyon, Namibia
Compliments of Weather Underground - 2.5 mb